Aviation Digital Data Service (ADDS)

Output produced by METARs form (0013 UTC 26 September 2016)
found at http://aviationweather.gov/adds/metars/
 
KMPV 252320Z 2600/2624 00000KT P6SM SKC 
     FM260600 00000KT 1/4SM FZFG VV001 
     FM261300 00000KT P6SM SKC 
     FM261700 17006KT P6SM SKC